Time;durP1;ratioP1;P1;durP2;ratioP2;P2;SDS_P1;SDS_P2;PMS_P1;PMS_P2;Temp;Humidity;BMP_temperature;BMP_pressure;BME280_temperature;BME280_humidity;BME280_pressure;Samples;Min_cycle;Max_cycle;Signal;HPM_P1;HPM_P2
2022/03/15 00:01:40;;;;;;;8.47;1.50;;;;;;;-145.69;91.13;73169.78;5073863;28;20252;-77
2022/03/15 00:04:09;;;;;;;5.37;1.77;;;;;;;-145.69;92.27;73183.72;5073642;28;20206;-77
2022/03/15 00:06:39;;;;;;;5.13;1.30;;;;;;;-145.69;92.32;73185.72;5073772;28;20213;-77
2022/03/15 00:09:05;;;;;;;2.43;1.50;;;;;;;-145.69;92.42;73183.72;5073818;28;20202;-77
2022/03/15 00:11:35;;;;;;;7.07;2.43;;;;;;;-145.69;93.72;73187.69;5073720;28;20199;-76
2022/03/15 00:14:05;;;;;;;6.07;2.47;;;;;;;-145.69;93.75;73201.63;5070482;28;20314;-77
2022/03/15 00:16:35;;;;;;;7.63;2.07;;;;;;;-145.69;94.00;73209.59;5073411;28;20712;-76
2022/03/15 00:19:09;;;;;;;4.93;2.03;;;;;;;-145.69;94.16;73213.56;5073638;28;20210;-77
2022/03/15 00:21:38;;;;;;;8.53;2.10;;;;;;;-145.69;93.31;73209.59;5073547;28;20195;-77
2022/03/15 00:24:15;;;;;;;9.03;2.37;;;;;;;-145.69;93.29;73205.63;5072100;28;20650;-77
2022/03/15 00:26:42;;;;;;;7.40;2.43;;;;;;;-145.69;93.60;73207.59;5073513;28;20293;-77
2022/03/15 00:29:08;;;;;;;7.00;2.10;;;;;;;-145.69;92.82;73183.72;5073275;28;20597;-76
2022/03/15 00:31:41;;;;;;;5.10;2.20;;;;;;;-145.69;92.90;73191.69;5073480;28;20206;-76
2022/03/15 00:34:07;;;;;;;12.53;2.67;;;;;;;-145.69;93.72;73199.66;5073569;28;20213;-77
2022/03/15 00:36:35;;;;;;;6.27;2.63;;;;;;;-145.69;94.44;73205.63;5073155;28;20723;-76
2022/03/15 00:39:03;;;;;;;8.63;2.40;;;;;;;-145.69;95.37;73209.59;5073001;28;20198;-76
2022/03/15 00:41:29;;;;;;;10.57;2.93;;;;;;;-145.69;94.81;73207.59;5073047;28;20205;-77
2022/03/15 00:43:56;;;;;;;6.30;2.40;;;;;;;-145.69;95.27;73203.63;5073129;28;20195;-76
2022/03/15 00:46:22;;;;;;;6.53;2.90;;;;;;;-145.69;94.70;73189.69;5073308;28;20202;-77
2022/03/15 00:48:51;;;;;;;10.27;2.57;;;;;;;-145.69;94.85;73187.69;5073249;28;20198;-77
2022/03/15 00:51:18;;;;;;;3.60;1.47;;;;;;;-145.69;90.88;73133.94;5072972;28;20562;-76
2022/03/15 00:53:44;;;;;;;4.87;2.03;;;;;;;-145.69;85.09;73044.38;5072717;28;20252;-76
2022/03/15 00:56:12;;;;;;;3.93;1.47;;;;;;;-145.69;83.86;73012.53;5072872;28;20230;-76
2022/03/15 00:58:38;;;;;;;11.00;2.03;;;;;;;-145.69;82.17;72994.59;5072945;28;20657;-76
2022/03/15 01:01:06;;;;;;;8.63;1.80;;;;;;;-145.69;80.45;72966.72;5073153;28;20558;-76
2022/03/15 01:03:33;;;;;;;5.77;1.77;;;;;;;-145.69;79.39;72948.81;5073028;28;20249;-76
2022/03/15 01:05:59;;;;;;;6.10;1.80;;;;;;;-145.69;78.14;72930.91;5072818;28;20653;-77
2022/03/15 01:08:27;;;;;;;4.73;1.67;;;;;;;-145.69;78.45;72922.94;5072810;28;20207;-77
2022/03/15 01:10:56;;;;;;;8.53;1.60;;;;;;;-145.69;77.52;72911.00;5072796;28;20202;-77
2022/03/15 01:13:24;;;;;;;3.67;1.40;;;;;;;-145.69;76.91;72911.00;5072609;28;20673;-76
2022/03/15 01:15:50;;;;;;;9.43;1.93;;;;;;;-145.69;77.25;72899.06;5072724;28;20237;-76
2022/03/15 01:18:17;;;;;;;3.23;1.60;;;;;;;-145.69;76.65;72887.09;5072873;28;20202;-77
2022/03/15 01:20:45;;;;;;;4.10;1.40;;;;;;;-145.69;76.10;72889.09;5072836;28;20202;-77
2022/03/15 01:23:11;;;;;;;3.27;1.70;;;;;;;-145.69;76.31;72891.09;5072357;28;20249;-77
2022/03/15 01:25:39;;;;;;;5.27;1.37;;;;;;;-145.69;76.09;72891.09;5072497;28;20661;-77
2022/03/15 01:28:06;;;;;;;2.63;1.37;;;;;;;-145.69;74.44;72875.16;5072541;28;20665;-77
2022/03/15 01:30:34;;;;;;;8.67;1.90;;;;;;;-145.69;74.96;72889.09;5072768;28;20203;-77
2022/03/15 01:33:00;;;;;;;6.27;2.20;;;;;;;-145.69;74.46;72883.13;5072695;28;20203;-77
2022/03/15 01:35:27;;;;;;;6.10;2.10;;;;;;;-145.69;76.75;72911.00;5072547;28;20219;-76
2022/03/15 01:37:53;;;;;;;16.47;2.83;;;;;;;-145.69;80.72;72962.75;5072564;28;20672;-77
2022/03/15 01:40:23;;;;;;;10.30;3.40;;;;;;;-145.69;82.30;72990.63;5072780;28;20292;-76
2022/03/15 01:42:50;;;;;;;10.20;3.33;;;;;;;-145.69;84.56;73040.38;5072998;28;20633;-77
2022/03/15 01:45:17;;;;;;;6.93;2.60;;;;;;;-145.69;85.66;73058.31;5072584;28;20677;-76
2022/03/15 01:47:44;;;;;;;10.40;2.80;;;;;;;-145.69;87.96;73092.16;5072587;28;20199;-76
2022/03/15 01:50:11;;;;;;;13.13;3.50;;;;;;;-145.69;89.58;73120.00;5072538;28;20198;-76
2022/03/15 01:52:37;;;;;;;7.23;2.87;;;;;;;-145.69;90.40;73126.00;5076263;28;20585;-76
2022/03/15 01:55:05;;;;;;;10.87;3.00;;;;;;;-145.69;91.75;73143.91;5076401;28;20534;-76
2022/03/15 01:57:32;;;;;;;9.40;3.20;;;;;;;-145.69;92.99;73161.81;5076207;28;20206;-76
2022/03/15 02:00:02;;;;;;;9.47;3.43;;;;;;;-145.69;94.22;73177.75;5076138;28;20646;-76
2022/03/15 02:02:29;;;;;;;9.47;3.50;;;;;;;-145.69;93.91;73177.75;5076152;28;20293;-76
2022/03/15 02:04:57;;;;;;;5.77;3.43;;;;;;;-145.69;95.39;73189.69;5076094;28;20210;-76
2022/03/15 02:07:24;;;;;;;7.77;3.23;;;;;;;-145.69;96.13;73209.59;5075895;28;20199;-76
2022/03/15 02:09:51;;;;;;;8.93;3.03;;;;;;;-145.69;97.05;73215.56;5075081;28;20298;-76
2022/03/15 02:12:17;;;;;;;7.53;3.43;;;;;;;-145.69;97.44;73221.53;5058080;28;20265;-76
2022/03/15 02:14:44;;;;;;;8.40;3.23;;;;;;;-145.69;97.81;73219.56;5055772;28;20253;-76
2022/03/15 02:17:10;;;;;;;12.00;3.50;;;;;;;-145.69;98.51;73223.53;5055677;28;20230;-77
2022/03/15 02:19:40;;;;;;;6.20;3.07;;;;;;;-145.69;99.04;73239.47;5063756;28;20190;-76
2022/03/15 02:22:08;;;;;;;8.37;3.47;;;;;;;-145.69;100.00;73247.41;5075993;28;20199;-77
2022/03/15 02:24:35;;;;;;;8.33;3.87;;;;;;;-145.69;100.00;73253.41;5075882;28;20198;-76
2022/03/15 02:27:04;;;;;;;11.37;3.80;;;;;;;-145.69;100.00;73265.34;5075721;28;20646;-77
2022/03/15 02:29:33;;;;;;;6.70;3.40;;;;;;;-145.69;100.00;73269.31;5075631;28;20201;-77
2022/03/15 02:32:01;;;;;;;9.50;3.10;;;;;;;-145.69;100.00;73291.22;5075695;28;20203;-76
2022/03/15 02:34:28;;;;;;;8.73;3.00;;;;;;;-145.69;100.00;73299.19;5075459;28;20207;-76
2022/03/15 02:36:56;;;;;;;12.80;3.23;;;;;;;-145.69;100.00;73313.13;5075337;28;20262;-77
2022/03/15 02:39:24;;;;;;;12.93;3.37;;;;;;;-145.69;100.00;73319.09;5075536;28;20194;-76
2022/03/15 02:41:54;;;;;;;8.90;3.53;;;;;;;-145.69;100.00;73317.09;5075226;28;20213;-76
2022/03/15 02:44:23;;;;;;;9.20;3.47;;;;;;;-145.69;100.00;73309.13;5075231;28;20783;-76
2022/03/15 02:46:50;;;;;;;12.37;3.87;;;;;;;-145.69;100.00;73301.19;5075548;28;20290;-77
2022/03/15 02:49:17;;;;;;;9.30;3.30;;;;;;;-145.69;100.00;73305.16;5075405;28;20232;-77
2022/03/15 02:51:44;;;;;;;11.17;3.87;;;;;;;-145.69;100.00;73305.16;5075099;28;20203;-76
2022/03/15 02:54:11;;;;;;;10.43;3.43;;;;;;;-145.69;100.00;73301.19;5075005;28;20206;-77
2022/03/15 02:56:42;;;;;;;10.03;3.97;;;;;;;-145.69;100.00;73301.19;5074932;28;20227;-77
2022/03/15 02:59:08;;;;;;;7.63;3.47;;;;;;;-145.69;100.00;73295.19;5075245;28;20191;-76
2022/03/15 03:01:35;;;;;;;9.07;3.73;;;;;;;-145.69;100.00;73293.22;5074971;28;20252;-76
2022/03/15 03:04:01;;;;;;;12.23;3.80;;;;;;;-145.69;100.00;73301.19;5075035;28;20202;-76
2022/03/15 03:06:30;;;;;;;7.40;3.50;;;;;;;-145.69;100.00;73301.19;5074849;28;20237;-76
2022/03/15 03:08:56;;;;;;;7.93;3.40;;;;;;;-145.69;100.00;73301.19;5074884;28;20234;-77
2022/03/15 03:11:24;;;;;;;9.97;3.50;;;;;;;-145.69;100.00;73303.16;5074464;28;20202;-77
2022/03/15 03:13:58;;;;;;;9.63;3.40;;;;;;;-145.69;100.00;73303.16;5074843;28;20226;-77
2022/03/15 03:16:28;;;;;;;6.83;3.60;;;;;;;-145.69;100.00;73303.16;5074722;28;20226;-76
2022/03/15 03:18:57;;;;;;;10.57;3.47;;;;;;;-145.69;100.00;73303.16;5074698;28;20684;-76
2022/03/15 03:21:25;;;;;;;10.10;3.63;;;;;;;-145.69;100.00;73301.19;5074659;28;20350;-76
2022/03/15 03:23:55;;;;;;;8.67;3.73;;;;;;;-145.69;100.00;73303.16;5074471;28;20202;-77
2022/03/15 03:26:22;;;;;;;9.77;3.43;;;;;;;-145.69;100.00;73317.09;5074466;28;20625;-77
2022/03/15 03:28:49;;;;;;;6.57;3.00;;;;;;;-145.69;100.00;73313.13;5074640;28;20628;-77
2022/03/15 03:31:17;;;;;;;8.37;3.30;;;;;;;-145.69;100.00;73321.09;5074545;28;20198;-77
2022/03/15 03:33:46;;;;;;;11.00;3.40;;;;;;;-145.69;100.00;73321.09;5074529;28;20206;-77
2022/03/15 03:36:14;;;;;;;15.80;3.77;;;;;;;-145.69;100.00;73285.25;5074451;28;20223;-77
2022/03/15 03:38:42;;;;;;;12.70;3.43;;;;;;;-145.69;100.00;73279.28;5074393;28;20199;-78
2022/03/15 03:41:08;;;;;;;7.90;3.00;;;;;;;-145.69;100.00;73285.25;5073852;28;20195;-77
2022/03/15 03:43:36;;;;;;;9.03;3.17;;;;;;;-145.69;100.00;73281.25;5074801;28;20199;-77
2022/03/15 03:46:03;;;;;;;10.30;2.97;;;;;;;-145.69;100.00;73273.31;5074212;28;20199;-77
2022/03/15 03:48:32;;;;;;;4.83;2.70;;;;;;;-145.69;100.00;73275.28;5074492;28;20201;-78
2022/03/15 03:51:00;;;;;;;9.83;2.93;;;;;;;-145.69;100.00;73283.25;5074210;28;20297;-77
2022/03/15 03:53:26;;;;;;;7.73;3.00;;;;;;;-145.69;100.00;73283.25;5074682;28;20203;-77
2022/03/15 03:55:53;;;;;;;9.17;3.17;;;;;;;-145.69;100.00;73285.25;5074147;28;20762;-77
2022/03/15 03:58:20;;;;;;;5.63;2.70;;;;;;;-145.69;100.00;73289.22;5074368;28;20198;-77
2022/03/15 04:00:46;;;;;;;6.00;2.70;;;;;;;-145.69;100.00;73291.22;5074001;28;20202;-77
2022/03/15 04:03:16;;;;;;;5.90;2.87;;;;;;;-145.69;100.00;73277.28;5074008;28;20203;-76
2022/03/15 04:05:45;;;;;;;18.27;2.90;;;;;;;-145.69;100.00;73269.31;5073810;28;20316;-77
2022/03/15 04:08:13;;;;;;;4.10;2.50;;;;;;;-145.69;100.00;73269.31;5073968;28;20195;-77
2022/03/15 04:10:45;;;;;;;6.77;2.57;;;;;;;-145.69;100.00;73269.31;5073492;28;20237;-77
2022/03/15 04:13:14;;;;;;;8.43;3.03;;;;;;;-145.69;100.00;73285.25;5061634;28;20623;-77
2022/03/15 04:15:41;;;;;;;6.63;3.00;;;;;;;-145.69;100.00;73289.22;5053461;28;20203;-77
2022/03/15 04:18:07;;;;;;;7.23;2.43;;;;;;;-145.69;100.00;73289.22;5053557;28;20663;-77
2022/03/15 04:20:35;;;;;;;7.13;2.70;;;;;;;-145.69;100.00;73291.22;5053501;28;20202;-77
2022/03/15 04:23:05;;;;;;;9.80;2.70;;;;;;;-145.69;100.00;73295.19;5053373;28;20666;-77
2022/03/15 04:25:31;;;;;;;9.23;3.07;;;;;;;-145.69;100.00;73303.16;5053757;28;20199;-77
2022/03/15 04:28:00;;;;;;;9.67;3.07;;;;;;;-145.69;100.00;73305.16;5053629;28;20203;-78
2022/03/15 04:30:29;;;;;;;5.07;2.50;;;;;;;-145.69;100.00;73305.16;5053610;28;20206;-77
2022/03/15 04:33:01;;;;;;;7.13;2.60;;;;;;;-145.69;100.00;73301.19;5053444;28;20204;-77
2022/03/15 04:35:28;;;;;;;8.87;2.53;;;;;;;-145.69;100.00;73291.22;5053547;28;20286;-77
2022/03/15 04:37:55;;;;;;;9.27;2.50;;;;;;;-145.69;100.00;73287.25;5053590;28;20234;-77
2022/03/15 04:40:23;;;;;;;6.17;2.60;;;;;;;-145.69;100.00;73285.25;5060506;28;20200;-77
2022/03/15 04:42:50;;;;;;;12.40;2.87;;;;;;;-145.69;100.00;73275.28;5073369;28;20207;-77
2022/03/15 04:45:17;;;;;;;8.50;2.70;;;;;;;-145.69;100.00;73263.34;5073192;28;20203;-76
2022/03/15 04:47:43;;;;;;;7.37;2.70;;;;;;;-145.69;100.00;73255.38;5073472;28;20213;-76
2022/03/15 04:50:11;;;;;;;5.63;2.50;;;;;;;-145.69;100.00;73257.38;5073388;28;20202;-76
2022/03/15 04:52:37;;;;;;;10.57;2.87;;;;;;;-145.69;100.00;73261.34;5073166;28;20198;-76
2022/03/15 04:55:07;;;;;;;5.17;2.33;;;;;;;-145.69;100.00;73265.34;5073157;28;20199;-77
2022/03/15 04:57:35;;;;;;;6.53;2.50;;;;;;;-145.69;100.00;73259.38;5072932;28;20231;-77
2022/03/15 05:00:02;;;;;;;7.53;2.53;;;;;;;-145.69;100.00;73247.41;5073310;28;20206;-76
2022/03/15 05:02:28;;;;;;;5.17;2.00;;;;;;;-145.69;100.00;73243.44;5072978;28;20684;-76
2022/03/15 05:05:04;;;;;;;5.33;2.30;;;;;;;-145.69;100.00;73249.41;5073257;28;20213;-77
2022/03/15 05:07:30;;;;;;;4.83;2.20;;;;;;;-145.69;100.00;73251.41;5073043;28;20225;-77
2022/03/15 05:12:43;;;;;;;7.67;2.77;;;;;;;-145.69;100.00;73237.47;5072957;28;20268;-77
2022/03/15 05:15:11;;;;;;;4.53;2.30;;;;;;;-145.69;100.00;73241.44;5072873;28;20308;-76
2022/03/15 05:17:38;;;;;;;8.17;2.33;;;;;;;-145.69;100.00;73229.50;5072787;28;20223;-77
2022/03/15 05:20:06;;;;;;;5.53;2.07;;;;;;;-145.69;100.00;73231.50;5072923;28;20206;-77
2022/03/15 05:22:35;;;;;;;5.23;2.30;;;;;;;-145.69;100.00;73235.47;5072733;28;20194;-77
2022/03/15 05:25:01;;;;;;;7.00;2.10;;;;;;;-145.69;100.00;73237.47;5072934;28;20199;-77
2022/03/15 05:27:32;;;;;;;7.33;2.40;;;;;;;-145.69;100.00;73243.44;5076783;28;20203;-77
2022/03/15 05:30:02;;;;;;;10.70;2.97;;;;;;;-145.69;100.00;73245.44;5076812;28;20673;-77
2022/03/15 05:32:29;;;;;;;5.67;2.63;;;;;;;-145.69;100.00;73239.47;5077198;28;20199;-77
2022/03/15 05:34:55;;;;;;;5.93;2.53;;;;;;;-145.69;100.00;73229.50;5076726;28;20202;-77
2022/03/15 05:37:22;;;;;;;6.13;2.40;;;;;;;-145.69;100.00;73219.56;5076730;28;20235;-77
2022/03/15 05:39:51;;;;;;;6.97;2.10;;;;;;;-145.69;100.00;73183.72;5076321;28;20653;-77
2022/03/15 05:42:21;;;;;;;4.00;2.20;;;;;;;-145.69;99.34;73153.84;5076437;28;20199;-77
2022/03/15 05:44:48;;;;;;;6.87;2.40;;;;;;;-145.69;100.00;73145.91;5076597;28;20234;-78
2022/03/15 05:47:16;;;;;;;5.63;2.47;;;;;;;-145.69;100.00;73141.91;5076490;28;20194;-78
2022/03/15 05:49:45;;;;;;;4.23;2.20;;;;;;;-145.69;99.62;73129.97;5076337;28;20256;-78
2022/03/15 05:52:21;;;;;;;5.57;2.13;;;;;;;-145.69;96.11;73098.13;5076670;28;20205;-78
2022/03/15 05:54:47;;;;;;;8.17;2.20;;;;;;;-145.69;95.71;73086.19;5076431;28;20568;-78
2022/03/15 05:57:14;;;;;;;3.97;2.50;;;;;;;-145.69;96.34;73068.25;5076325;28;20252;-77
2022/03/15 05:59:42;;;;;;;9.97;2.63;;;;;;;-145.69;96.12;73074.22;5076224;28;20210;-77
2022/03/15 06:02:16;;;;;;;5.60;1.80;;;;;;;-145.69;98.69;73080.19;5076108;28;20199;-77
2022/03/15 06:04:45;;;;;;;7.90;1.93;;;;;;;-145.69;100.00;73106.09;5076418;28;20203;-77
2022/03/15 06:07:11;;;;;;;5.73;1.87;;;;;;;-145.69;97.95;73100.09;5076244;28;20208;-77
2022/03/15 06:09:38;;;;;;;6.90;2.07;;;;;;;-145.69;98.35;73078.22;5075862;28;20207;-78
2022/03/15 06:12:07;;;;;;;9.80;2.60;;;;;;;-145.69;94.83;73050.34;5066653;28;20203;-78
2022/03/15 06:14:33;;;;;;;6.40;2.20;;;;;;;-145.69;94.20;73038.41;5056007;28;20246;-78
2022/03/15 06:17:00;;;;;;;11.17;2.30;;;;;;;-145.69;93.53;73020.47;5055243;28;20219;-77
2022/03/15 06:19:27;;;;;;;8.77;1.80;;;;;;;-145.69;95.32;73026.44;5056022;28;20207;-77
2022/03/15 06:22:01;;;;;;;3.50;1.90;;;;;;;-145.69;94.52;73010.53;5055948;28;20207;-77
2022/03/15 06:24:28;;;;;;;7.70;2.10;;;;;;;-145.69;93.58;72998.59;5055954;28;20257;-78
2022/03/15 06:26:58;;;;;;;5.90;2.13;;;;;;;-145.69;93.37;72992.59;5055801;28;20208;-78
2022/03/15 06:29:25;;;;;;;6.07;2.30;;;;;;;-145.69;94.10;72978.69;5055753;28;20249;-78
2022/03/15 06:31:53;;;;;;;4.33;1.77;;;;;;;-145.69;89.17;72944.84;5055924;28;20204;-78
2022/03/15 06:34:20;;;;;;;5.27;2.67;;;;;;;-145.69;83.06;72895.06;5055858;28;20207;-77
2022/03/15 06:36:51;;;;;;;4.20;2.23;;;;;;;-145.69;80.10;72855.25;5055229;28;20223;-77
2022/03/15 06:39:19;;;;;;;7.87;2.30;;;;;;;-145.69;83.35;72851.28;5055629;28;20203;-78
2022/03/15 06:41:46;;;;;;;7.50;2.00;;;;;;;-145.69;89.43;72895.06;5055515;28;20208;-78
2022/03/15 06:44:12;;;;;;;8.07;1.80;;;;;;;-145.69;89.56;72905.03;5055585;28;20624;-78
2022/03/15 06:46:43;;;;;;;5.10;2.30;;;;;;;-145.69;90.63;72903.03;5055562;28;20211;-78
2022/03/15 06:49:10;;;;;;;6.97;2.20;;;;;;;-145.69;92.20;72893.09;5055590;28;20605;-78
2022/03/15 06:51:36;;;;;;;5.40;2.00;;;;;;;-145.69;93.41;72893.09;5055327;28;20569;-77
2022/03/15 06:54:04;;;;;;;5.60;2.40;;;;;;;-145.69;93.84;72883.13;5055226;28;20303;-78
2022/03/15 06:56:32;;;;;;;5.13;2.00;;;;;;;-145.69;93.72;72887.09;5054893;28;20301;-78
2022/03/15 06:58:59;;;;;;;4.27;2.13;;;;;;;-145.69;96.26;72887.09;5055321;28;20195;-78
2022/03/15 07:01:25;;;;;;;5.50;2.40;;;;;;;-145.69;99.41;72879.16;5055223;28;20205;-78
2022/03/15 07:03:52;;;;;;;3.37;2.30;;;;;;;-145.69;96.53;72863.22;5055165;28;20205;-77
2022/03/15 07:06:21;;;;;;;6.60;2.30;;;;;;;-145.69;98.28;72845.31;5054977;28;20200;-77
2022/03/15 07:08:47;;;;;;;4.27;1.93;;;;;;;-145.69;98.20;72843.31;5054791;28;20242;-78
2022/03/15 07:11:15;;;;;;;3.63;1.90;;;;;;;-145.69;100.00;72839.34;5070212;28;20194;-77
2022/03/15 07:13:42;;;;;;;3.57;2.03;;;;;;;-145.69;100.00;72847.28;5074718;28;20241;-77
2022/03/15 07:16:10;;;;;;;6.67;2.33;;;;;;;-145.69;100.00;72839.34;5074822;28;20665;-78
2022/03/15 07:18:40;;;;;;;4.30;2.00;;;;;;;-145.69;100.00;72847.28;5074789;28;20231;-78
2022/03/15 07:21:06;;;;;;;4.27;2.13;;;;;;;-145.69;100.00;72847.28;5074746;28;20222;-78
2022/03/15 07:23:33;;;;;;;4.33;2.10;;;;;;;-145.69;100.00;72839.34;5074690;28;20199;-78
2022/03/15 07:26:13;;;;;;;4.73;2.17;;;;;;;-145.69;100.00;72829.38;5074891;28;20554;-78
2022/03/15 07:28:41;;;;;;;13.70;2.27;;;;;;;-145.69;100.00;72813.47;5074777;28;20213;-78
2022/03/15 07:31:07;;;;;;;4.90;1.90;;;;;;;-145.69;100.00;72809.47;5074555;28;20199;-78
2022/03/15 07:33:35;;;;;;;8.77;2.10;;;;;;;-145.69;100.00;72797.53;5074535;28;20203;-78
2022/03/15 07:36:03;;;;;;;4.93;2.00;;;;;;;-145.69;100.00;72781.59;5074357;28;20207;-78
2022/03/15 07:38:32;;;;;;;3.57;2.03;;;;;;;-145.69;100.00;72749.75;5074015;28;20230;-78
2022/03/15 07:41:01;;;;;;;5.37;1.80;;;;;;;-145.69;100.00;72721.88;5074464;28;20199;-78
2022/03/15 07:43:28;;;;;;;4.00;2.03;;;;;;;-145.69;100.00;72705.97;5074152;28;20661;-78
2022/03/15 07:46:01;;;;;;;5.57;2.23;;;;;;;-145.69;100.00;72713.94;5074104;28;20206;-78
2022/03/15 07:48:28;;;;;;;5.73;2.20;;;;;;;-145.69;100.00;72731.84;5073212;28;20199;-78
2022/03/15 07:50:54;;;;;;;7.00;2.33;;;;;;;-145.69;100.00;72711.94;5074311;28;20213;-78
2022/03/15 07:53:21;;;;;;;3.33;2.00;;;;;;;-145.69;100.00;72680.09;5074145;28;20289;-78
2022/03/15 07:55:47;;;;;;;3.63;1.77;;;;;;;-145.69;100.00;72658.19;5073884;28;20650;-78
2022/03/15 07:58:14;;;;;;;9.27;1.97;;;;;;;-145.69;100.00;72680.09;5073947;28;20604;-78
2022/03/15 08:00:43;;;;;;;5.63;1.63;;;;;;;-145.69;100.00;72680.09;5074000;28;20221;-77
2022/03/15 08:03:10;;;;;;;4.27;2.53;;;;;;;-145.69;100.00;72684.06;5073809;28;20202;-78
2022/03/15 08:05:37;;;;;;;10.93;2.40;;;;;;;-145.69;100.00;72707.97;5073894;28;20213;-78
2022/03/15 08:08:06;;;;;;;10.10;4.20;;;;;;;-145.69;100.00;72700.00;5074615;28;20230;-78
2022/03/15 08:10:35;;;;;;;5.23;2.60;;;;;;;-145.69;100.00;72672.13;5073348;28;20692;-77
2022/03/15 08:13:05;;;;;;;4.97;2.30;;;;;;;-145.69;100.00;72652.22;5073155;28;20210;-78
2022/03/15 08:15:32;;;;;;;2.80;1.60;;;;;;;-145.69;100.00;72648.25;5073651;28;20199;-77
2022/03/15 08:17:58;;;;;;;2.83;1.83;;;;;;;-145.69;100.00;72638.28;5073290;28;20237;-78
2022/03/15 08:20:32;;;;;;;1.77;1.00;;;;;;;-145.69;100.00;72608.44;5061609;28;20211;-77
2022/03/15 08:22:59;;;;;;;2.40;1.13;;;;;;;-145.69;100.00;72592.50;5053710;28;20285;-78
2022/03/15 08:25:25;;;;;;;2.00;1.10;;;;;;;-145.69;100.00;72564.66;5053557;28;20203;-78
2022/03/15 08:27:52;;;;;;;1.73;0.97;;;;;;;-145.69;100.00;72540.75;5053315;28;20684;-77
2022/03/15 08:30:20;;;;;;;1.30;0.90;;;;;;;-145.69;100.00;72536.78;5053314;28;20204;-78
2022/03/15 08:32:47;;;;;;;1.53;1.00;;;;;;;-145.69;100.00;72538.78;5053574;28;20290;-77
2022/03/15 08:35:13;;;;;;;1.20;0.90;;;;;;;-145.69;100.00;72534.78;5053514;28;20199;-77
2022/03/15 08:37:42;;;;;;;0.93;0.80;;;;;;;-145.69;100.00;72506.91;5053363;28;20234;-77
2022/03/15 08:40:11;;;;;;;1.57;0.90;;;;;;;-145.69;100.00;72508.91;5064581;28;20767;-77
2022/03/15 08:42:37;;;;;;;3.23;0.80;;;;;;;-145.69;100.00;72510.91;5072674;28;20202;-78
2022/03/15 08:45:05;;;;;;;1.30;0.70;;;;;;;-145.69;100.00;72500.94;5073442;28;20202;-77
2022/03/15 08:47:35;;;;;;;0.70;0.70;;;;;;;-145.69;100.00;72491.00;5072958;28;20767;-78
2022/03/15 08:50:01;;;;;;;1.30;0.90;;;;;;;-145.69;100.00;72489.00;5073194;28;20282;-78
2022/03/15 08:52:35;;;;;;;0.80;0.70;;;;;;;-145.69;100.00;72493.00;5073161;28;20229;-78
2022/03/15 08:55:05;;;;;;;0.97;0.70;;;;;;;-145.69;98.80;72469.09;5073091;28;20207;-78
2022/03/15 08:57:32;;;;;;;2.27;0.80;;;;;;;-145.69;99.11;72463.13;5073165;28;20257;-78
2022/03/15 08:59:59;;;;;;;1.00;0.90;;;;;;;-145.69;100.00;72463.13;5073015;28;20194;-79
2022/03/15 09:02:25;;;;;;;6.27;1.10;;;;;;;-145.69;100.00;72457.16;5072965;28;20205;-77
2022/03/15 09:04:52;;;;;;;1.40;0.87;;;;;;;-145.69;96.45;72453.19;5072583;28;20206;-79
2022/03/15 09:07:18;;;;;;;1.20;0.90;;;;;;;-145.69;96.90;72429.28;5072924;28;20207;-81
2022/03/15 09:09:45;;;;;;;2.43;1.03;;;;;;;-145.69;99.59;72433.28;5072657;28;20222;-78
2022/03/15 09:12:13;;;;;;;1.50;1.00;;;;;;;-145.69;97.89;72429.28;5072812;28;20676;-79
2022/03/15 09:14:41;;;;;;;1.73;1.10;;;;;;;-145.69;97.68;72415.38;5072586;28;20226;-78
2022/03/15 09:17:07;;;;;;;0.80;0.80;;;;;;;-145.69;93.41;72403.41;5072818;28;20198;-79
2022/03/15 09:19:36;;;;;;;1.50;1.00;;;;;;;-145.69;93.89;72391.47;5073027;28;20213;-78
2022/03/15 09:22:04;;;;;;;1.70;0.95;;;;;;;-145.69;91.97;72373.56;5072528;28;20529;-80
2022/03/15 09:24:32;;;;;;;4.33;1.97;;;;;;;-145.69;91.46;72351.66;5072781;28;20253;-78
2022/03/15 09:26:59;;;;;;;4.80;1.10;;;;;;;-145.69;89.95;72351.66;5072591;28;20234;-79
2022/03/15 09:29:28;;;;;;;1.43;0.87;;;;;;;-145.69;90.01;72339.72;5072759;28;20229;-79
2022/03/15 09:31:55;;;;;;;3.43;2.30;;;;;;;-145.69;88.09;72325.81;5072314;28;20562;-77
2022/03/15 09:34:22;;;;;;;2.33;1.73;;;;;;;-145.69;90.59;72309.88;5072729;28;20569;-78
2022/03/15 09:36:55;;;;;;;1.47;0.90;;;;;;;-145.69;89.04;72313.84;5062787;28;20199;-79
2022/03/15 09:39:24;;;;;;;1.90;0.90;;;;;;;-145.69;88.55;72299.91;5056696;28;20272;-78
2022/03/15 09:41:52;;;;;;;2.27;0.90;;;;;;;-145.69;87.41;72291.97;5072458;28;20202;-79
2022/03/15 09:44:19;;;;;;;2.30;0.93;;;;;;;-145.69;89.03;72287.97;5072564;28;20558;-78
2022/03/15 09:46:52;;;;;;;3.73;1.10;;;;;;;-145.69;89.32;72278.03;5072360;28;20206;-78
2022/03/15 09:49:19;;;;;;;2.37;0.90;;;;;;;-145.69;90.23;72266.09;5072376;28;20199;-80
2022/03/15 09:51:46;;;;;;;0.83;0.70;;;;;;;-145.69;88.46;72246.19;5072562;28;20209;-78
2022/03/15 09:54:13;;;;;;;2.63;1.00;;;;;;;-145.69;91.12;72291.97;5072235;28;20654;-80
2022/03/15 09:56:40;;;;;;;2.37;1.30;;;;;;;-145.69;90.72;72266.09;5072238;28;20277;-78
2022/03/15 09:59:14;;;;;;;1.75;0.93;;;;;;;-145.69;89.83;72266.09;5072002;28;20462;-77
2022/03/15 10:01:42;;;;;;;7.40;1.20;;;;;;;-145.69;90.36;72278.03;5072272;28;20209;-79
2022/03/15 10:04:11;;;;;;;1.63;1.00;;;;;;;-145.69;91.15;72266.09;5072225;28;20226;-79
2022/03/15 10:06:38;;;;;;;1.00;0.80;;;;;;;-145.69;91.06;72256.13;5072373;28;20202;-78
2022/03/15 10:09:05;;;;;;;1.13;0.90;;;;;;;-145.69;91.28;72252.16;5072305;28;20210;-78
2022/03/15 10:11:32;;;;;;;1.03;1.03;;;;;;;-145.69;91.49;72258.13;5072718;28;20202;-79
2022/03/15 10:14:01;;;;;;;4.63;1.10;;;;;;;-145.69;88.88;72268.06;5075700;28;20566;-78
2022/03/15 10:16:32;;;;;;;2.87;0.90;;;;;;;-145.69;89.41;72266.09;5075755;28;20248;-78
2022/03/15 10:19:00;;;;;;;1.97;0.90;;;;;;;-145.69;91.51;72246.19;5075928;28;20593;-79
2022/03/15 10:21:39;;;;;;;3.60;0.87;;;;;;;-145.69;89.09;72252.16;5075603;28;20234;-77
2022/03/15 10:24:07;;;;;;;4.93;0.93;;;;;;;-145.69;90.00;72248.19;5073133;28;20291;-78
2022/03/15 10:26:38;;;;;;;2.93;1.07;;;;;;;-145.69;92.68;72278.03;5075314;28;20217;-78
2022/03/15 10:29:04;;;;;;;1.70;0.90;;;;;;;-145.69;90.37;72278.03;5075633;28;20277;-79
2022/03/15 10:31:34;;;;;;;3.10;1.10;;;;;;;-145.69;91.49;72266.09;5075748;28;20639;-79
2022/03/15 10:34:02;;;;;;;2.10;1.03;;;;;;;-145.69;91.70;72272.06;5075683;28;20252;-79
2022/03/15 10:36:39;;;;;;;4.43;1.50;;;;;;;-145.69;91.50;72272.06;5075494;28;20206;-79
2022/03/15 10:39:07;;;;;;;1.70;1.17;;;;;;;-145.69;91.52;72272.06;5075549;28;20234;-79
2022/03/15 10:41:43;;;;;;;2.83;1.10;;;;;;;-145.69;91.59;72278.03;5075474;28;20210;-80
2022/03/15 10:44:19;;;;;;;5.93;1.47;;;;;;;-145.69;90.69;72282.00;5075560;28;20199;-79
2022/03/15 10:46:45;;;;;;;5.87;1.40;;;;;;;-145.69;91.15;72274.06;5075535;28;20546;-79
2022/03/15 10:49:12;;;;;;;6.30;3.73;;;;;;;-145.69;90.45;72286.00;5075428;28;20207;-79
2022/03/15 10:51:47;;;;;;;2.77;1.50;;;;;;;-145.69;91.50;72270.06;5075052;28;20608;-80
2022/03/15 10:54:18;;;;;;;1.80;1.00;;;;;;;-145.69;92.33;72262.09;5075504;28;20206;-79
2022/03/15 10:56:53;;;;;;;7.43;0.97;;;;;;;-145.69;92.99;72268.06;5075165;28;20229;-79
2022/03/15 10:59:22;;;;;;;3.37;1.40;;;;;;;-145.69;91.14;72268.06;5074757;28;20230;-79
2022/03/15 11:01:50;;;;;;;1.10;0.90;;;;;;;-145.69;91.13;72260.13;5074956;28;20252;-79
2022/03/15 11:04:17;;;;;;;2.33;1.13;;;;;;;-145.69;90.06;72256.13;5075104;28;20234;-79
2022/03/15 11:06:46;;;;;;;1.97;0.97;;;;;;;-145.69;88.05;72242.22;5075003;28;20268;-79
2022/03/15 11:09:21;;;;;;;5.43;2.27;;;;;;;-145.69;88.67;72222.31;5075263;28;20256;-79
2022/03/15 11:11:52;;;;;;;5.10;1.50;;;;;;;-145.69;87.09;72216.34;5074910;28;20653;-79
2022/03/15 11:14:32;;;;;;;1.83;1.00;;;;;;;-145.69;84.83;72224.28;5074940;28;20230;-79
2022/03/15 11:17:00;;;;;;;3.47;1.27;;;;;;;-145.69;85.09;72226.28;5074953;28;20581;-79
2022/03/15 11:19:29;;;;;;;1.67;1.37;;;;;;;-145.69;87.04;72232.25;5074901;28;20320;-79